sensor_id;sensor_type;location;lat;lon;timestamp;temperature;humidity
24252;DHT22;12380;51.118;4.176;2024-03-17T00:00:35;8.40;1.00
24252;DHT22;12380;51.118;4.176;2024-03-17T00:03:00;8.20;1.00
24252;DHT22;12380;51.118;4.176;2024-03-17T00:05:26;8.20;1.00
24252;DHT22;12380;51.118;4.176;2024-03-17T00:07:53;7.90;1.00
24252;DHT22;12380;51.118;4.176;2024-03-17T00:10:24;7.90;1.00
24252;DHT22;12380;51.118;4.176;2024-03-17T00:12:51;8.10;1.00
24252;DHT22;12380;51.118;4.176;2024-03-17T00:15:17;8.20;1.00
24252;DHT22;12380;51.118;4.176;2024-03-17T00:17:46;8.20;1.00
24252;DHT22;12380;51.118;4.176;2024-03-17T00:20:11;8.10;1.00
24252;DHT22;12380;51.118;4.176;2024-03-17T00:22:48;8.10;1.00
24252;DHT22;12380;51.118;4.176;2024-03-17T00:25:15;8.30;1.00
24252;DHT22;12380;51.118;4.176;2024-03-17T00:27:41;8.10;1.00
24252;DHT22;12380;51.118;4.176;2024-03-17T00:30:09;8.20;1.00
24252;DHT22;12380;51.118;4.176;2024-03-17T00:32:39;8.30;1.00
24252;DHT22;12380;51.118;4.176;2024-03-17T00:35:09;8.20;1.00
24252;DHT22;12380;51.118;4.176;2024-03-17T00:37:36;8.30;1.00
24252;DHT22;12380;51.118;4.176;2024-03-17T00:40:03;8.30;1.00
24252;DHT22;12380;51.118;4.176;2024-03-17T00:42:32;8.30;1.00
24252;DHT22;12380;51.118;4.176;2024-03-17T00:45:03;8.10;1.00
24252;DHT22;12380;51.118;4.176;2024-03-17T00:47:31;8.00;1.00
24252;DHT22;12380;51.118;4.176;2024-03-17T00:49:56;7.90;1.00
24252;DHT22;12380;51.118;4.176;2024-03-17T00:52:22;8.00;1.00
24252;DHT22;12380;51.118;4.176;2024-03-17T00:54:48;8.10;1.00
24252;DHT22;12380;51.118;4.176;2024-03-17T00:57:16;7.90;1.00
24252;DHT22;12380;51.118;4.176;2024-03-17T00:59:42;8.00;1.00
24252;DHT22;12380;51.118;4.176;2024-03-17T01:02:11;8.20;1.00
24252;DHT22;12380;51.118;4.176;2024-03-17T01:04:42;8.20;1.00
24252;DHT22;12380;51.118;4.176;2024-03-17T01:07:11;8.20;1.00
24252;DHT22;12380;51.118;4.176;2024-03-17T01:09:40;8.40;1.00
24252;DHT22;12380;51.118;4.176;2024-03-17T01:12:06;8.50;1.00
24252;DHT22;12380;51.118;4.176;2024-03-17T01:14:32;8.50;1.00
24252;DHT22;12380;51.118;4.176;2024-03-17T01:16:59;8.50;1.00
24252;DHT22;12380;51.118;4.176;2024-03-17T01:19:25;8.50;1.00
24252;DHT22;12380;51.118;4.176;2024-03-17T01:21:54;8.50;1.00
24252;DHT22;12380;51.118;4.176;2024-03-17T01:24:20;8.60;1.00
24252;DHT22;12380;51.118;4.176;2024-03-17T01:26:45;8.50;1.00
24252;DHT22;12380;51.118;4.176;2024-03-17T01:29:11;8.40;1.00
24252;DHT22;12380;51.118;4.176;2024-03-17T01:31:37;8.80;1.00
24252;DHT22;12380;51.118;4.176;2024-03-17T01:34:05;8.90;99.90
24252;DHT22;12380;51.118;4.176;2024-03-17T01:36:30;8.90;1.00
24252;DHT22;12380;51.118;4.176;2024-03-17T01:38:59;8.80;1.00
24252;DHT22;12380;51.118;4.176;2024-03-17T01:41:25;8.70;1.00
24252;DHT22;12380;51.118;4.176;2024-03-17T01:43:51;8.50;1.00
24252;DHT22;12380;51.118;4.176;2024-03-17T01:46:17;8.60;1.00
24252;DHT22;12380;51.118;4.176;2024-03-17T01:48:46;8.60;1.00
24252;DHT22;12380;51.118;4.176;2024-03-17T01:51:13;8.50;1.00
24252;DHT22;12380;51.118;4.176;2024-03-17T01:53:40;8.40;1.00
24252;DHT22;12380;51.118;4.176;2024-03-17T01:56:12;8.30;1.00
24252;DHT22;12380;51.118;4.176;2024-03-17T01:58:38;8.40;1.00
24252;DHT22;12380;51.118;4.176;2024-03-17T02:01:04;8.60;1.00
24252;DHT22;12380;51.118;4.176;2024-03-17T02:03:30;8.90;1.00
24252;DHT22;12380;51.118;4.176;2024-03-17T02:06:00;8.80;1.00
24252;DHT22;12380;51.118;4.176;2024-03-17T02:08:26;8.80;1.00
24252;DHT22;12380;51.118;4.176;2024-03-17T02:10:56;8.80;99.90
24252;DHT22;12380;51.118;4.176;2024-03-17T02:13:22;8.80;99.90
24252;DHT22;12380;51.118;4.176;2024-03-17T02:15:48;8.90;1.00
24252;DHT22;12380;51.118;4.176;2024-03-17T02:18:14;8.70;1.00
24252;DHT22;12380;51.118;4.176;2024-03-17T02:20:42;8.80;1.00
24252;DHT22;12380;51.118;4.176;2024-03-17T02:23:26;8.80;1.00
24252;DHT22;12380;51.118;4.176;2024-03-17T02:25:53;9.10;99.90
24252;DHT22;12380;51.118;4.176;2024-03-17T02:28:21;9.10;99.90
24252;DHT22;12380;51.118;4.176;2024-03-17T02:30:47;8.80;1.00
24252;DHT22;12380;51.118;4.176;2024-03-17T02:33:14;8.80;1.00
24252;DHT22;12380;51.118;4.176;2024-03-17T02:35:40;8.80;99.90
24252;DHT22;12380;51.118;4.176;2024-03-17T02:38:09;8.80;1.00
24252;DHT22;12380;51.118;4.176;2024-03-17T02:40:37;8.90;1.00
24252;DHT22;12380;51.118;4.176;2024-03-17T02:43:03;9.10;99.90
24252;DHT22;12380;51.118;4.176;2024-03-17T02:45:28;9.00;99.90
24252;DHT22;12380;51.118;4.176;2024-03-17T02:47:54;9.20;99.90
24252;DHT22;12380;51.118;4.176;2024-03-17T02:50:20;9.10;99.90
24252;DHT22;12380;51.118;4.176;2024-03-17T02:52:46;8.80;99.90
24252;DHT22;12380;51.118;4.176;2024-03-17T02:55:12;8.80;1.00
24252;DHT22;12380;51.118;4.176;2024-03-17T02:57:37;9.10;1.00
24252;DHT22;12380;51.118;4.176;2024-03-17T03:00:06;8.90;99.90
24252;DHT22;12380;51.118;4.176;2024-03-17T03:02:34;8.70;1.00
24252;DHT22;12380;51.118;4.176;2024-03-17T03:04:59;9.00;1.00
24252;DHT22;12380;51.118;4.176;2024-03-17T03:07:25;9.20;99.90
24252;DHT22;12380;51.118;4.176;2024-03-17T03:09:53;9.30;99.90
24252;DHT22;12380;51.118;4.176;2024-03-17T03:12:19;9.10;99.90
24252;DHT22;12380;51.118;4.176;2024-03-17T03:14:45;8.90;99.90
24252;DHT22;12380;51.118;4.176;2024-03-17T03:17:11;9.00;99.90
24252;DHT22;12380;51.118;4.176;2024-03-17T03:19:36;9.10;99.90
24252;DHT22;12380;51.118;4.176;2024-03-17T03:22:02;8.80;1.00
24252;DHT22;12380;51.118;4.176;2024-03-17T03:24:28;8.60;99.90
24252;DHT22;12380;51.118;4.176;2024-03-17T03:26:53;8.60;1.00
24252;DHT22;12380;51.118;4.176;2024-03-17T03:29:19;8.40;1.00
24252;DHT22;12380;51.118;4.176;2024-03-17T03:31:46;8.50;1.00
24252;DHT22;12380;51.118;4.176;2024-03-17T03:34:13;8.50;1.00
24252;DHT22;12380;51.118;4.176;2024-03-17T03:36:39;8.40;1.00
24252;DHT22;12380;51.118;4.176;2024-03-17T03:39:06;8.40;1.00
24252;DHT22;12380;51.118;4.176;2024-03-17T03:41:36;8.60;1.00
24252;DHT22;12380;51.118;4.176;2024-03-17T03:44:03;8.70;1.00
24252;DHT22;12380;51.118;4.176;2024-03-17T03:46:29;8.50;1.00
24252;DHT22;12380;51.118;4.176;2024-03-17T03:49:00;8.50;1.00
24252;DHT22;12380;51.118;4.176;2024-03-17T03:51:26;8.40;1.00
24252;DHT22;12380;51.118;4.176;2024-03-17T03:53:54;8.40;1.00
24252;DHT22;12380;51.118;4.176;2024-03-17T03:56:21;8.50;1.00
24252;DHT22;12380;51.118;4.176;2024-03-17T03:58:48;8.40;1.00
24252;DHT22;12380;51.118;4.176;2024-03-17T04:01:17;8.40;1.00
24252;DHT22;12380;51.118;4.176;2024-03-17T04:03:47;8.40;1.00
24252;DHT22;12380;51.118;4.176;2024-03-17T04:06:14;8.30;1.00
24252;DHT22;12380;51.118;4.176;2024-03-17T04:08:41;8.00;1.00
24252;DHT22;12380;51.118;4.176;2024-03-17T04:11:07;8.10;1.00
24252;DHT22;12380;51.118;4.176;2024-03-17T04:13:36;8.10;1.00
24252;DHT22;12380;51.118;4.176;2024-03-17T04:16:06;8.40;1.00
24252;DHT22;12380;51.118;4.176;2024-03-17T04:18:33;8.40;1.00
24252;DHT22;12380;51.118;4.176;2024-03-17T04:21:05;8.40;1.00
24252;DHT22;12380;51.118;4.176;2024-03-17T04:23:34;8.30;1.00
24252;DHT22;12380;51.118;4.176;2024-03-17T04:26:00;8.40;1.00
24252;DHT22;12380;51.118;4.176;2024-03-17T04:28:27;8.20;1.00
24252;DHT22;12380;51.118;4.176;2024-03-17T04:30:53;7.90;1.00
24252;DHT22;12380;51.118;4.176;2024-03-17T04:33:18;8.00;1.00
24252;DHT22;12380;51.118;4.176;2024-03-17T04:35:46;8.30;1.00
24252;DHT22;12380;51.118;4.176;2024-03-17T04:38:12;8.20;1.00
24252;DHT22;12380;51.118;4.176;2024-03-17T04:40:41;8.10;1.00
24252;DHT22;12380;51.118;4.176;2024-03-17T04:43:07;8.00;1.00
24252;DHT22;12380;51.118;4.176;2024-03-17T04:45:32;8.00;1.00
24252;DHT22;12380;51.118;4.176;2024-03-17T04:47:58;8.10;1.00
24252;DHT22;12380;51.118;4.176;2024-03-17T04:50:24;8.10;1.00
24252;DHT22;12380;51.118;4.176;2024-03-17T04:52:51;8.40;1.00
24252;DHT22;12380;51.118;4.176;2024-03-17T04:55:17;8.20;1.00
24252;DHT22;12380;51.118;4.176;2024-03-17T04:57:46;8.20;1.00
24252;DHT22;12380;51.118;4.176;2024-03-17T05:00:12;8.00;1.00
24252;DHT22;12380;51.118;4.176;2024-03-17T05:02:39;8.00;1.00
24252;DHT22;12380;51.118;4.176;2024-03-17T05:05:05;8.10;1.00
24252;DHT22;12380;51.118;4.176;2024-03-17T05:07:33;8.20;1.00
24252;DHT22;12380;51.118;4.176;2024-03-17T05:09:59;8.20;1.00
24252;DHT22;12380;51.118;4.176;2024-03-17T05:12:25;8.30;1.00
24252;DHT22;12380;51.118;4.176;2024-03-17T05:14:51;8.20;1.00
24252;DHT22;12380;51.118;4.176;2024-03-17T05:17:17;8.20;1.00
24252;DHT22;12380;51.118;4.176;2024-03-17T05:19:42;8.00;1.00
24252;DHT22;12380;51.118;4.176;2024-03-17T05:22:10;7.80;1.00
24252;DHT22;12380;51.118;4.176;2024-03-17T05:24:36;7.70;1.00
24252;DHT22;12380;51.118;4.176;2024-03-17T05:27:02;7.60;26.50
24252;DHT22;12380;51.118;4.176;2024-03-17T05:29:29;8.00;1.90
24252;DHT22;12380;51.118;4.176;2024-03-17T05:31:55;7.80;1.00
24252;DHT22;12380;51.118;4.176;2024-03-17T05:34:23;7.70;21.60
24252;DHT22;12380;51.118;4.176;2024-03-17T05:36:51;8.00;1.10
24252;DHT22;12380;51.118;4.176;2024-03-17T05:39:17;8.30;1.00
24252;DHT22;12380;51.118;4.176;2024-03-17T05:41:43;8.20;1.00
24252;DHT22;12380;51.118;4.176;2024-03-17T05:44:15;8.40;1.00
24252;DHT22;12380;51.118;4.176;2024-03-17T05:46:41;8.30;1.00
24252;DHT22;12380;51.118;4.176;2024-03-17T05:49:09;8.20;1.00
24252;DHT22;12380;51.118;4.176;2024-03-17T05:51:35;8.10;1.00
24252;DHT22;12380;51.118;4.176;2024-03-17T05:54:03;8.20;1.00
24252;DHT22;12380;51.118;4.176;2024-03-17T05:56:29;8.40;1.00
24252;DHT22;12380;51.118;4.176;2024-03-17T05:58:57;8.40;1.00
24252;DHT22;12380;51.118;4.176;2024-03-17T06:01:23;8.40;1.00
24252;DHT22;12380;51.118;4.176;2024-03-17T06:03:48;8.40;1.00
24252;DHT22;12380;51.118;4.176;2024-03-17T06:06:14;8.40;1.00
24252;DHT22;12380;51.118;4.176;2024-03-17T06:08:40;8.60;1.00
24252;DHT22;12380;51.118;4.176;2024-03-17T06:11:06;8.60;1.00
24252;DHT22;12380;51.118;4.176;2024-03-17T06:13:31;8.50;1.00
24252;DHT22;12380;51.118;4.176;2024-03-17T06:15:57;8.60;1.00
24252;DHT22;12380;51.118;4.176;2024-03-17T06:18:26;8.80;1.00
24252;DHT22;12380;51.118;4.176;2024-03-17T06:20:52;8.70;1.00
24252;DHT22;12380;51.118;4.176;2024-03-17T06:23:18;8.50;1.00
24252;DHT22;12380;51.118;4.176;2024-03-17T06:25:47;8.40;1.00
24252;DHT22;12380;51.118;4.176;2024-03-17T06:28:15;8.60;1.00
24252;DHT22;12380;51.118;4.176;2024-03-17T06:30:42;8.60;1.00
24252;DHT22;12380;51.118;4.176;2024-03-17T06:33:12;8.80;1.00
24252;DHT22;12380;51.118;4.176;2024-03-17T06:35:40;8.70;1.00
24252;DHT22;12380;51.118;4.176;2024-03-17T06:38:08;8.70;1.00
24252;DHT22;12380;51.118;4.176;2024-03-17T06:40:38;8.90;1.00
24252;DHT22;12380;51.118;4.176;2024-03-17T06:43:04;8.90;1.00
24252;DHT22;12380;51.118;4.176;2024-03-17T06:45:29;8.70;1.00
24252;DHT22;12380;51.118;4.176;2024-03-17T06:47:55;8.70;1.00
24252;DHT22;12380;51.118;4.176;2024-03-17T06:50:21;9.00;1.00
24252;DHT22;12380;51.118;4.176;2024-03-17T06:52:47;9.00;1.00
24252;DHT22;12380;51.118;4.176;2024-03-17T06:55:15;9.00;1.00
24252;DHT22;12380;51.118;4.176;2024-03-17T06:57:42;9.10;1.00
24252;DHT22;12380;51.118;4.176;2024-03-17T07:00:12;9.10;1.00
24252;DHT22;12380;51.118;4.176;2024-03-17T07:02:41;9.10;1.00
24252;DHT22;12380;51.118;4.176;2024-03-17T07:05:12;9.00;1.00
24252;DHT22;12380;51.118;4.176;2024-03-17T07:07:40;8.90;1.00
24252;DHT22;12380;51.118;4.176;2024-03-17T07:10:06;9.00;1.00
24252;DHT22;12380;51.118;4.176;2024-03-17T07:12:32;9.20;1.00
24252;DHT22;12380;51.118;4.176;2024-03-17T07:14:57;9.20;1.00
24252;DHT22;12380;51.118;4.176;2024-03-17T07:17:25;9.30;1.00
24252;DHT22;12380;51.118;4.176;2024-03-17T07:19:54;9.30;1.00
24252;DHT22;12380;51.118;4.176;2024-03-17T07:22:19;9.30;1.00
24252;DHT22;12380;51.118;4.176;2024-03-17T07:24:45;9.30;1.00
24252;DHT22;12380;51.118;4.176;2024-03-17T07:27:11;9.30;1.00
24252;DHT22;12380;51.118;4.176;2024-03-17T07:29:42;9.30;1.00
24252;DHT22;12380;51.118;4.176;2024-03-17T07:32:08;9.20;1.00
24252;DHT22;12380;51.118;4.176;2024-03-17T07:34:33;9.20;1.00
24252;DHT22;12380;51.118;4.176;2024-03-17T07:37:00;9.10;1.00
24252;DHT22;12380;51.118;4.176;2024-03-17T07:39:32;9.30;1.00
24252;DHT22;12380;51.118;4.176;2024-03-17T07:42:01;9.60;1.00
24252;DHT22;12380;51.118;4.176;2024-03-17T07:44:30;9.70;1.00
24252;DHT22;12380;51.118;4.176;2024-03-17T07:47:03;9.80;1.00
24252;DHT22;12380;51.118;4.176;2024-03-17T07:49:32;10.00;1.00
24252;DHT22;12380;51.118;4.176;2024-03-17T07:51:58;10.00;1.00
24252;DHT22;12380;51.118;4.176;2024-03-17T07:54:24;10.20;1.00
24252;DHT22;12380;51.118;4.176;2024-03-17T07:56:51;10.30;1.00
24252;DHT22;12380;51.118;4.176;2024-03-17T07:59:17;10.30;1.00
24252;DHT22;12380;51.118;4.176;2024-03-17T08:01:44;10.10;1.00
24252;DHT22;12380;51.118;4.176;2024-03-17T08:04:10;10.30;1.00
24252;DHT22;12380;51.118;4.176;2024-03-17T08:06:38;10.50;1.00
24252;DHT22;12380;51.118;4.176;2024-03-17T08:09:04;10.70;1.00
24252;DHT22;12380;51.118;4.176;2024-03-17T08:11:29;11.10;1.00
24252;DHT22;12380;51.118;4.176;2024-03-17T08:13:56;11.30;99.90
24252;DHT22;12380;51.118;4.176;2024-03-17T08:16:24;11.30;1.00
24252;DHT22;12380;51.118;4.176;2024-03-17T08:18:49;11.30;99.90
24252;DHT22;12380;51.118;4.176;2024-03-17T08:21:15;11.20;99.90
24252;DHT22;12380;51.118;4.176;2024-03-17T08:23:41;11.30;99.90
24252;DHT22;12380;51.118;4.176;2024-03-17T08:26:08;11.30;1.00
24252;DHT22;12380;51.118;4.176;2024-03-17T08:28:34;11.40;99.90
24252;DHT22;12380;51.118;4.176;2024-03-17T08:31:01;11.30;1.00
24252;DHT22;12380;51.118;4.176;2024-03-17T08:33:30;11.40;1.00
24252;DHT22;12380;51.118;4.176;2024-03-17T08:36:04;11.30;1.00
24252;DHT22;12380;51.118;4.176;2024-03-17T08:38:31;11.40;1.00
24252;DHT22;12380;51.118;4.176;2024-03-17T08:41:01;11.50;1.00
24252;DHT22;12380;51.118;4.176;2024-03-17T08:43:27;11.70;1.00
24252;DHT22;12380;51.118;4.176;2024-03-17T08:46:01;11.70;1.00
24252;DHT22;12380;51.118;4.176;2024-03-17T08:48:33;11.60;1.00
24252;DHT22;12380;51.118;4.176;2024-03-17T08:51:00;11.70;1.00
24252;DHT22;12380;51.118;4.176;2024-03-17T08:53:26;11.90;1.00
24252;DHT22;12380;51.118;4.176;2024-03-17T08:55:54;11.90;1.00
24252;DHT22;12380;51.118;4.176;2024-03-17T08:58:21;11.70;33.90
24252;DHT22;12380;51.118;4.176;2024-03-17T09:00:47;11.70;99.30
24252;DHT22;12380;51.118;4.176;2024-03-17T09:03:13;11.60;99.90
24252;DHT22;12380;51.118;4.176;2024-03-17T09:05:44;11.60;69.10
24252;DHT22;12380;51.118;4.176;2024-03-17T09:08:17;11.50;99.90
24252;DHT22;12380;51.118;4.176;2024-03-17T09:10:44;11.30;99.90
24252;DHT22;12380;51.118;4.176;2024-03-17T09:13:17;11.30;99.90
24252;DHT22;12380;51.118;4.176;2024-03-17T09:15:59;11.20;99.90
24252;DHT22;12380;51.118;4.176;2024-03-17T09:18:26;11.10;99.90
24252;DHT22;12380;51.118;4.176;2024-03-17T09:21:10;11.20;99.90
24252;DHT22;12380;51.118;4.176;2024-03-17T09:23:38;11.20;99.90
24252;DHT22;12380;51.118;4.176;2024-03-17T09:26:10;11.30;99.90
24252;DHT22;12380;51.118;4.176;2024-03-17T09:28:38;11.00;99.90
24252;DHT22;12380;51.118;4.176;2024-03-17T09:31:04;11.00;99.90
24252;DHT22;12380;51.118;4.176;2024-03-17T09:33:34;11.20;99.90
24252;DHT22;12380;51.118;4.176;2024-03-17T09:36:07;11.10;99.90
24252;DHT22;12380;51.118;4.176;2024-03-17T09:38:34;11.20;99.90
24252;DHT22;12380;51.118;4.176;2024-03-17T09:41:00;11.20;99.90
24252;DHT22;12380;51.118;4.176;2024-03-17T09:43:27;11.10;99.90
24252;DHT22;12380;51.118;4.176;2024-03-17T09:45:54;11.00;99.90
24252;DHT22;12380;51.118;4.176;2024-03-17T09:48:27;11.20;99.90
24252;DHT22;12380;51.118;4.176;2024-03-17T09:50:57;11.20;99.90
24252;DHT22;12380;51.118;4.176;2024-03-17T09:53:33;11.30;99.90
24252;DHT22;12380;51.118;4.176;2024-03-17T09:56:10;11.60;99.90
24252;DHT22;12380;51.118;4.176;2024-03-17T09:58:43;11.60;99.90
24252;DHT22;12380;51.118;4.176;2024-03-17T10:01:09;11.70;99.90
24252;DHT22;12380;51.118;4.176;2024-03-17T10:06:18;11.70;99.90
24252;DHT22;12380;51.118;4.176;2024-03-17T10:08:52;11.50;99.90
24252;DHT22;12380;51.118;4.176;2024-03-17T10:11:20;11.60;99.90
24252;DHT22;12380;51.118;4.176;2024-03-17T10:13:47;11.70;99.90
24252;DHT22;12380;51.118;4.176;2024-03-17T10:16:25;11.90;99.90
24252;DHT22;12380;51.118;4.176;2024-03-17T10:19:14;12.00;99.90
24252;DHT22;12380;51.118;4.176;2024-03-17T10:21:45;12.00;99.90
24252;DHT22;12380;51.118;4.176;2024-03-17T10:24:24;11.90;99.90
24252;DHT22;12380;51.118;4.176;2024-03-17T10:26:52;12.00;99.90
24252;DHT22;12380;51.118;4.176;2024-03-17T10:29:34;12.20;99.90
24252;DHT22;12380;51.118;4.176;2024-03-17T10:32:15;12.30;99.90
24252;DHT22;12380;51.118;4.176;2024-03-17T10:34:46;12.30;99.90
24252;DHT22;12380;51.118;4.176;2024-03-17T10:37:15;12.50;99.90
24252;DHT22;12380;51.118;4.176;2024-03-17T10:39:43;12.60;99.90
24252;DHT22;12380;51.118;4.176;2024-03-17T10:42:11;12.40;99.90
24252;DHT22;12380;51.118;4.176;2024-03-17T10:44:38;12.50;99.90
24252;DHT22;12380;51.118;4.176;2024-03-17T10:47:05;12.50;99.90
24252;DHT22;12380;51.118;4.176;2024-03-17T10:49:38;12.50;99.90
24252;DHT22;12380;51.118;4.176;2024-03-17T10:52:06;12.60;99.90
24252;DHT22;12380;51.118;4.176;2024-03-17T10:54:34;12.70;99.90
24252;DHT22;12380;51.118;4.176;2024-03-17T10:59:54;12.80;99.90
24252;DHT22;12380;51.118;4.176;2024-03-17T11:02:27;12.90;73.40
24252;DHT22;12380;51.118;4.176;2024-03-17T11:05:28;12.80;6.60
24252;DHT22;12380;51.118;4.176;2024-03-17T11:07:59;12.80;30.70
24252;DHT22;12380;51.118;4.176;2024-03-17T11:10:38;12.70;24.80
24252;DHT22;12380;51.118;4.176;2024-03-17T11:13:04;12.80;25.60
24252;DHT22;12380;51.118;4.176;2024-03-17T11:20:40;12.80;74.80
24252;DHT22;12380;51.118;4.176;2024-03-17T11:23:06;12.80;4.70
24252;DHT22;12380;51.118;4.176;2024-03-17T11:28:04;13.20;1.00
24252;DHT22;12380;51.118;4.176;2024-03-17T11:30:45;13.40;1.00
24252;DHT22;12380;51.118;4.176;2024-03-17T11:41:37;13.90;1.00
24252;DHT22;12380;51.118;4.176;2024-03-17T11:46:55;14.10;1.00
24252;DHT22;12380;51.118;4.176;2024-03-17T11:49:37;14.20;1.00
24252;DHT22;12380;51.118;4.176;2024-03-17T11:52:04;14.40;1.00
24252;DHT22;12380;51.118;4.176;2024-03-17T11:54:35;14.60;1.00
24252;DHT22;12380;51.118;4.176;2024-03-17T11:59:28;15.30;1.00
24252;DHT22;12380;51.118;4.176;2024-03-17T12:01:55;15.40;1.00
24252;DHT22;12380;51.118;4.176;2024-03-17T12:04:25;15.70;1.00
24252;DHT22;12380;51.118;4.176;2024-03-17T12:06:55;15.50;99.90
24252;DHT22;12380;51.118;4.176;2024-03-17T12:12:04;15.30;99.90
24252;DHT22;12380;51.118;4.176;2024-03-17T12:14:30;15.20;1.00
24252;DHT22;12380;51.118;4.176;2024-03-17T12:17:01;15.30;1.00
24252;DHT22;12380;51.118;4.176;2024-03-17T12:19:30;15.30;1.00
24252;DHT22;12380;51.118;4.176;2024-03-17T12:21:58;15.60;1.00
24252;DHT22;12380;51.118;4.176;2024-03-17T12:24:27;15.60;99.90
24252;DHT22;12380;51.118;4.176;2024-03-17T12:26:53;15.40;99.90
24252;DHT22;12380;51.118;4.176;2024-03-17T12:29:28;15.70;99.90
24252;DHT22;12380;51.118;4.176;2024-03-17T12:32:18;16.00;99.90
24252;DHT22;12380;51.118;4.176;2024-03-17T12:34:54;16.00;99.90
24252;DHT22;12380;51.118;4.176;2024-03-17T12:37:25;15.70;99.90
24252;DHT22;12380;51.118;4.176;2024-03-17T12:39:56;15.80;99.90
24252;DHT22;12380;51.118;4.176;2024-03-17T12:42:26;15.70;99.90
24252;DHT22;12380;51.118;4.176;2024-03-17T12:45:02;15.70;99.90
24252;DHT22;12380;51.118;4.176;2024-03-17T12:47:30;15.70;99.90
24252;DHT22;12380;51.118;4.176;2024-03-17T12:49:59;15.70;99.90
24252;DHT22;12380;51.118;4.176;2024-03-17T12:55:20;15.90;99.90
24252;DHT22;12380;51.118;4.176;2024-03-17T12:58:05;15.80;99.90
24252;DHT22;12380;51.118;4.176;2024-03-17T13:01:03;15.50;99.90
24252;DHT22;12380;51.118;4.176;2024-03-17T13:03:36;15.40;99.90
24252;DHT22;12380;51.118;4.176;2024-03-17T13:06:03;15.40;99.90
24252;DHT22;12380;51.118;4.176;2024-03-17T13:08:31;15.40;1.00
24252;DHT22;12380;51.118;4.176;2024-03-17T13:11:00;15.40;99.90
24252;DHT22;12380;51.118;4.176;2024-03-17T13:13:29;15.40;99.90
24252;DHT22;12380;51.118;4.176;2024-03-17T13:15:55;15.20;1.00
24252;DHT22;12380;51.118;4.176;2024-03-17T13:18:21;15.40;1.00
24252;DHT22;12380;51.118;4.176;2024-03-17T13:20:47;15.30;99.90
24252;DHT22;12380;51.118;4.176;2024-03-17T13:23:19;15.40;1.00
24252;DHT22;12380;51.118;4.176;2024-03-17T13:25:47;15.20;99.90
24252;DHT22;12380;51.118;4.176;2024-03-17T13:28:15;15.10;99.90
24252;DHT22;12380;51.118;4.176;2024-03-17T13:30:41;15.00;1.00
24252;DHT22;12380;51.118;4.176;2024-03-17T13:33:10;15.20;1.00
24252;DHT22;12380;51.118;4.176;2024-03-17T13:35:41;15.40;99.90
24252;DHT22;12380;51.118;4.176;2024-03-17T13:38:07;15.40;99.90
24252;DHT22;12380;51.118;4.176;2024-03-17T13:40:35;15.50;1.00
24252;DHT22;12380;51.118;4.176;2024-03-17T13:43:01;15.50;1.00
24252;DHT22;12380;51.118;4.176;2024-03-17T13:45:29;15.30;1.00
24252;DHT22;12380;51.118;4.176;2024-03-17T13:48:02;15.20;1.00
24252;DHT22;12380;51.118;4.176;2024-03-17T13:50:30;15.20;1.00
24252;DHT22;12380;51.118;4.176;2024-03-17T13:52:57;15.10;1.00
24252;DHT22;12380;51.118;4.176;2024-03-17T13:55:25;15.00;99.90
24252;DHT22;12380;51.118;4.176;2024-03-17T13:57:56;15.00;29.90
24252;DHT22;12380;51.118;4.176;2024-03-17T14:00:23;15.00;71.60
24252;DHT22;12380;51.118;4.176;2024-03-17T14:02:51;15.00;1.00
24252;DHT22;12380;51.118;4.176;2024-03-17T14:05:20;14.90;1.00
24252;DHT22;12380;51.118;4.176;2024-03-17T14:07:46;14.90;51.20
24252;DHT22;12380;51.118;4.176;2024-03-17T14:10:17;14.90;99.90
24252;DHT22;12380;51.118;4.176;2024-03-17T14:12:43;15.10;99.90
24252;DHT22;12380;51.118;4.176;2024-03-17T14:15:10;15.20;1.00
24252;DHT22;12380;51.118;4.176;2024-03-17T14:17:43;15.10;1.00
24252;DHT22;12380;51.118;4.176;2024-03-17T14:20:09;15.20;99.90
24252;DHT22;12380;51.118;4.176;2024-03-17T14:22:36;14.90;12.90
24252;DHT22;12380;51.118;4.176;2024-03-17T14:25:06;14.90;1.00
24252;DHT22;12380;51.118;4.176;2024-03-17T14:27:33;14.80;1.00
24252;DHT22;12380;51.118;4.176;2024-03-17T14:30:00;14.80;1.00
24252;DHT22;12380;51.118;4.176;2024-03-17T14:32:29;14.70;99.90
24252;DHT22;12380;51.118;4.176;2024-03-17T14:34:55;14.70;99.90
24252;DHT22;12380;51.118;4.176;2024-03-17T14:37:21;14.80;99.90
24252;DHT22;12380;51.118;4.176;2024-03-17T14:39:48;14.70;99.90
24252;DHT22;12380;51.118;4.176;2024-03-17T14:42:15;14.60;1.00
24252;DHT22;12380;51.118;4.176;2024-03-17T14:44:41;14.60;1.00
24252;DHT22;12380;51.118;4.176;2024-03-17T14:47:06;14.60;1.00
24252;DHT22;12380;51.118;4.176;2024-03-17T14:49:36;14.50;1.00
24252;DHT22;12380;51.118;4.176;2024-03-17T14:52:02;14.60;1.00
24252;DHT22;12380;51.118;4.176;2024-03-17T14:54:28;14.80;1.00
24252;DHT22;12380;51.118;4.176;2024-03-17T14:56:53;14.70;1.00
24252;DHT22;12380;51.118;4.176;2024-03-17T14:59:20;14.80;1.00
24252;DHT22;12380;51.118;4.176;2024-03-17T15:01:46;14.80;1.00
24252;DHT22;12380;51.118;4.176;2024-03-17T15:04:15;14.80;1.00
24252;DHT22;12380;51.118;4.176;2024-03-17T15:06:41;14.80;1.00
24252;DHT22;12380;51.118;4.176;2024-03-17T15:09:09;14.90;1.00
24252;DHT22;12380;51.118;4.176;2024-03-17T15:11:34;14.80;1.00
24252;DHT22;12380;51.118;4.176;2024-03-17T15:14:01;14.80;1.00
24252;DHT22;12380;51.118;4.176;2024-03-17T15:16:26;14.70;1.00
24252;DHT22;12380;51.118;4.176;2024-03-17T15:18:54;14.70;1.00
24252;DHT22;12380;51.118;4.176;2024-03-17T15:21:20;14.70;1.00
24252;DHT22;12380;51.118;4.176;2024-03-17T15:23:46;14.60;1.00
24252;DHT22;12380;51.118;4.176;2024-03-17T15:26:14;14.50;1.00
24252;DHT22;12380;51.118;4.176;2024-03-17T15:28:43;14.50;1.00
24252;DHT22;12380;51.118;4.176;2024-03-17T15:31:09;14.50;1.00
24252;DHT22;12380;51.118;4.176;2024-03-17T15:33:36;14.50;1.00
24252;DHT22;12380;51.118;4.176;2024-03-17T15:36:04;14.50;1.00
24252;DHT22;12380;51.118;4.176;2024-03-17T15:38:31;14.50;1.00
24252;DHT22;12380;51.118;4.176;2024-03-17T15:41:04;14.50;1.00
24252;DHT22;12380;51.118;4.176;2024-03-17T15:43:36;14.40;1.00
24252;DHT22;12380;51.118;4.176;2024-03-17T15:46:06;14.20;21.50
24252;DHT22;12380;51.118;4.176;2024-03-17T15:48:33;14.40;1.00
24252;DHT22;12380;51.118;4.176;2024-03-17T15:50:59;14.40;1.00
24252;DHT22;12380;51.118;4.176;2024-03-17T15:53:27;14.40;1.00
24252;DHT22;12380;51.118;4.176;2024-03-17T15:56:02;14.30;1.00
24252;DHT22;12380;51.118;4.176;2024-03-17T15:58:29;14.20;1.00
24252;DHT22;12380;51.118;4.176;2024-03-17T16:00:58;14.30;1.00
24252;DHT22;12380;51.118;4.176;2024-03-17T16:03:30;14.20;1.00
24252;DHT22;12380;51.118;4.176;2024-03-17T16:06:01;14.00;1.00
24252;DHT22;12380;51.118;4.176;2024-03-17T16:08:28;13.90;1.00
24252;DHT22;12380;51.118;4.176;2024-03-17T16:10:59;13.80;1.20
24252;DHT22;12380;51.118;4.176;2024-03-17T16:13:27;13.90;3.20
24252;DHT22;12380;51.118;4.176;2024-03-17T16:15:56;14.00;1.00
24252;DHT22;12380;51.118;4.176;2024-03-17T16:18:23;13.80;11.40
24252;DHT22;12380;51.118;4.176;2024-03-17T16:21:00;13.70;24.80
24252;DHT22;12380;51.118;4.176;2024-03-17T16:23:36;13.60;55.50
24252;DHT22;12380;51.118;4.176;2024-03-17T16:26:03;13.60;75.30
24252;DHT22;12380;51.118;4.176;2024-03-17T16:28:29;13.40;97.40